createdAt,value
2019-02-07T00:00:27.796Z,6.64
2019-02-07T00:05:23.685Z,6.67
2019-02-07T00:10:19.975Z,6.61
2019-02-07T00:15:16.064Z,6.57
2019-02-07T00:20:15.025Z,6.68
2019-02-07T00:25:10.936Z,6.70
2019-02-07T00:30:10.542Z,6.50
2019-02-07T00:35:08.534Z,6.56
2019-02-07T00:40:10.442Z,6.69
2019-02-07T00:45:09.133Z,6.43
2019-02-07T00:50:07.925Z,6.57
2019-02-07T00:55:07.320Z,6.70
2019-02-07T01:00:15.892Z,6.67
2019-02-07T01:05:12.785Z,6.74
2019-02-07T01:10:11.554Z,6.75
2019-02-07T01:15:09.798Z,6.72
2019-02-07T01:20:11.720Z,6.62
2019-02-07T01:25:10.810Z,6.65
2019-02-07T01:30:10.310Z,6.68
2019-02-07T01:35:07.395Z,6.75
2019-02-07T01:40:10.208Z,6.70
2019-02-07T01:45:13.156Z,6.73
2019-02-07T01:50:10.288Z,6.73
2019-02-07T01:55:06.302Z,6.63
2019-02-07T02:00:07.803Z,6.59
2019-02-07T02:05:05.260Z,6.52
2019-02-07T02:10:01.523Z,6.32
2019-02-07T02:14:57.506Z,6.25
2019-02-07T02:19:53.479Z,6.24
2019-02-07T02:24:49.457Z,6.22
2019-02-07T02:29:46.411Z,6.18
2019-02-07T02:34:42.931Z,6.10
2019-02-07T02:39:39.449Z,6.22
2019-02-07T02:44:35.393Z,6.20
2019-02-07T02:49:31.394Z,6.20
2019-02-07T02:54:36.091Z,6.06
2019-02-07T02:59:32.034Z,6.12
2019-02-07T03:04:29.924Z,6.11
2019-02-07T03:09:45.945Z,6.05
2019-02-07T03:14:46.256Z,5.94
2019-02-07T03:20:00.777Z,5.88
2019-02-07T03:25:15.179Z,5.88
2019-02-07T03:30:22.113Z,5.80
2019-02-07T03:35:22.631Z,5.81
2019-02-07T03:40:32.231Z,5.62
2019-02-07T03:45:32.799Z,5.64
2019-02-07T03:50:47.645Z,5.59
2019-02-07T03:55:45.444Z,5.45
2019-02-07T04:00:43.361Z,5.37
2019-02-07T04:05:59.566Z,5.33
2019-02-07T04:11:09.645Z,5.33
2019-02-07T04:16:17.084Z,5.23
2019-02-07T04:21:29.896Z,5.19
2019-02-07T04:26:33.305Z,5.21
2019-02-07T04:31:34.177Z,5.20
2019-02-07T04:36:48.804Z,5.37
2019-02-07T04:41:49.917Z,5.23
2019-02-07T04:47:04.152Z,5.33
2019-02-07T04:52:11.018Z,5.43
2019-02-07T04:57:15.121Z,5.51
2019-02-07T05:02:18.709Z,5.59
2019-02-07T05:07:16.513Z,5.71
2019-02-07T05:12:14.307Z,5.85
2019-02-07T05:17:27.248Z,5.81
2019-02-07T05:22:25.036Z,5.82
2019-02-07T05:27:34.924Z,5.90
2019-02-07T05:32:37.803Z,5.83
2019-02-07T05:37:35.602Z,5.94
2019-02-07T05:42:33.403Z,5.94
2019-02-07T05:47:36.998Z,6.00
2019-02-07T05:52:34.795Z,6.05
2019-02-07T05:57:41.366Z,6.05
2019-02-07T06:02:39.161Z,6.07
2019-02-07T06:07:39.755Z,6.04
2019-02-07T06:12:46.901Z,5.95
2019-02-07T06:17:44.691Z,6.03
2019-02-07T06:22:57.837Z,6.01
2019-02-07T06:27:55.632Z,5.96
2019-02-07T06:32:53.517Z,5.97
2019-02-07T06:37:54.370Z,6.05
2019-02-07T06:42:52.171Z,6.02
2019-02-07T06:47:53.221Z,6.03
2019-02-07T06:52:51.021Z,6.03
2019-02-07T06:57:51.598Z,6.10
2019-02-07T07:02:49.381Z,6.07
2019-02-07T07:07:49.720Z,6.01
2019-02-07T07:12:47.632Z,6.07
2019-02-07T07:17:51.319Z,6.14
2019-02-07T07:23:05.998Z,6.28
2019-02-07T07:28:09.850Z,6.28
2019-02-07T07:33:07.640Z,6.25
2019-02-07T07:38:05.538Z,6.29
2019-02-07T07:43:12.015Z,6.31
2019-02-07T07:48:09.911Z,6.34
2019-02-07T07:53:24.773Z,6.33
2019-02-07T07:58:39.456Z,6.30
2019-02-07T08:03:43.194Z,6.42
2019-02-07T08:08:49.692Z,6.62
2019-02-07T08:13:47.484Z,6.65
2019-02-07T08:18:48.274Z,6.62
2019-02-07T08:24:06.809Z,6.81
2019-02-07T08:29:07.702Z,6.93
2019-02-07T08:34:09.364Z,7.01
2019-02-07T08:39:22.304Z,7.17
2019-02-07T08:44:23.125Z,7.56
2019-02-07T08:49:21.026Z,7.75
2019-02-07T08:54:37.399Z,7.73
2019-02-07T08:59:35.261Z,7.71
2019-02-07T09:04:33.457Z,7.83
2019-02-07T09:14:41.501Z,7.84
2019-02-07T09:19:39.287Z,7.93
2019-02-07T09:24:39.939Z,8.05
2019-02-07T09:29:37.711Z,8.14
2019-02-07T09:34:39.980Z,8.18
2019-02-07T09:39:41.404Z,8.17
2019-02-07T09:44:45.639Z,8.27
2019-02-07T09:50:00.657Z,8.26
2019-02-07T09:55:13.932Z,8.25
2019-02-07T10:00:15.110Z,8.28
2019-02-07T10:05:28.574Z,8.27
2019-02-07T10:10:38.438Z,8.31
2019-02-07T10:15:45.539Z,8.31
2019-02-07T10:20:46.181Z,8.47
2019-02-07T10:25:51.358Z,8.60
2019-02-07T10:31:07.828Z,8.62
2019-02-07T10:36:05.728Z,8.66
2019-02-07T10:41:05.766Z,8.89
2019-02-07T10:46:06.374Z,8.89
2019-02-07T10:51:10.149Z,8.90
2019-02-07T10:56:16.888Z,8.86
2019-02-07T11:01:20.572Z,8.75
2019-02-07T11:06:30.177Z,8.75
2019-02-07T11:11:28.154Z,8.74
2019-02-07T11:16:25.932Z,8.89
2019-02-07T11:21:38.773Z,9.02
2019-02-07T11:26:39.116Z,9.03
2019-02-07T11:31:52.069Z,9.08
2019-02-07T11:37:02.222Z,9.39
2019-02-07T11:42:05.863Z,9.69
2019-02-07T11:47:21.115Z,9.85
2019-02-07T11:52:24.730Z,9.70
2019-02-07T11:57:25.569Z,9.70
2019-02-07T12:02:26.802Z,9.79
2019-02-07T12:07:39.728Z,10.14
2019-02-07T12:12:46.106Z,10.04
2019-02-07T12:17:47.050Z,10.12
2019-02-07T12:22:56.481Z,10.11
2019-02-07T12:27:57.207Z,9.95
2019-02-07T12:33:01.448Z,10.11
2019-02-07T12:38:00.283Z,10.07
2019-02-07T12:42:58.273Z,10.16
2019-02-07T12:47:58.637Z,9.95
2019-02-07T12:53:13.309Z,9.88
2019-02-07T12:58:20.187Z,9.93
2019-02-07T13:03:36.242Z,10.03
2019-02-07T13:08:46.245Z,10.22
2019-02-07T13:13:50.074Z,10.08
2019-02-07T13:19:04.514Z,10.25
2019-02-07T13:24:18.257Z,10.24
2019-02-07T13:29:21.903Z,10.20
2019-02-07T13:34:19.743Z,10.11
2019-02-07T13:39:23.400Z,9.86
2019-02-07T13:44:30.453Z,10.03
2019-02-07T13:49:51.995Z,9.92
2019-02-07T13:54:47.843Z,9.96
2019-02-07T13:59:45.744Z,9.85
2019-02-07T14:04:49.523Z,9.89
2019-02-07T14:09:56.445Z,9.86
2019-02-07T14:15:03.254Z,9.75
2019-02-07T14:20:03.928Z,9.79
2019-02-07T14:25:14.074Z,9.72
2019-02-07T14:30:13.293Z,9.59
2019-02-07T14:35:17.825Z,9.61
2019-02-07T14:40:15.802Z,9.70
2019-02-07T14:45:31.502Z,9.80
2019-02-07T14:50:27.663Z,9.98
2019-02-07T14:55:23.555Z,9.83
2019-02-07T15:00:22.455Z,9.72
2019-02-07T15:05:18.442Z,9.75
2019-02-07T15:10:20.056Z,9.68
2019-02-07T15:15:19.065Z,9.67
2019-02-07T15:20:25.501Z,9.62
2019-02-07T15:25:13.249Z,9.60
2019-02-07T15:30:12.634Z,9.60
2019-02-07T15:35:21.314Z,9.57
2019-02-07T15:40:20.321Z,9.42
2019-02-07T15:45:16.609Z,9.45
2019-02-07T15:50:16.014Z,9.42
2019-02-07T15:55:12.307Z,9.42
2019-02-07T16:00:13.912Z,9.42
2019-02-07T16:05:11.606Z,9.44
2019-02-07T16:10:11.005Z,9.33
2019-02-07T16:15:09.633Z,9.33
2019-02-07T16:25:12.799Z,9.09
2019-02-07T16:30:13.680Z,9.03
2019-02-07T16:35:12.566Z,9.03
2019-02-07T16:40:11.069Z,9.03
2019-02-07T16:45:16.467Z,9.08
2019-02-07T16:50:19.212Z,9.09
2019-02-07T16:55:16.264Z,9.07
2019-02-07T17:00:18.884Z,9.04
2019-02-07T17:05:16.380Z,8.99
2019-02-07T17:10:18.557Z,9.03
2019-02-07T17:15:16.357Z,9.01
2019-02-07T17:20:25.118Z,9.05
2019-02-07T17:25:21.355Z,9.03
2019-02-07T17:30:41.793Z,9.02
2019-02-07T17:35:37.860Z,9.00
2019-02-07T17:40:33.753Z,8.95
2019-02-07T17:45:30.598Z,8.89
2019-02-07T17:50:35.075Z,8.90
2019-02-07T17:55:31.076Z,8.86
2019-02-07T18:00:47.945Z,8.84
2019-02-07T18:05:43.924Z,8.81
2019-02-07T18:10:40.115Z,8.76
2019-02-07T18:15:36.310Z,8.69
2019-02-07T18:20:32.396Z,8.52
2019-02-07T18:25:28.280Z,8.43
2019-02-07T18:30:24.334Z,8.34
2019-02-07T18:35:20.324Z,8.19
2019-02-07T18:40:22.477Z,8.21
2019-02-07T18:45:19.565Z,8.15
2019-02-07T18:50:22.263Z,8.10
2019-02-07T18:55:18.249Z,8.13
2019-02-07T19:00:26.149Z,8.02
2019-02-07T19:05:22.437Z,7.99
2019-02-07T19:10:20.453Z,7.96
2019-02-07T19:15:37.571Z,7.96
2019-02-07T19:20:33.460Z,7.94
2019-02-07T19:25:29.450Z,7.96
2019-02-07T19:30:30.405Z,7.96
2019-02-07T19:35:26.489Z,7.89
2019-02-07T19:40:22.503Z,7.92
2019-02-07T19:45:20.689Z,7.92
2019-02-07T19:50:19.580Z,7.89
2019-02-07T19:55:17.478Z,7.82
2019-02-07T20:00:16.779Z,7.79
2019-02-07T20:05:12.964Z,7.82
2019-02-07T20:10:14.610Z,7.79
2019-02-07T20:15:17.102Z,7.74
2019-02-07T20:20:14.467Z,7.72
2019-02-07T20:25:11.855Z,7.62
2019-02-07T20:30:14.691Z,7.62
2019-02-07T20:35:10.983Z,7.60
2019-02-07T20:40:10.692Z,7.50
2019-02-07T20:45:09.785Z,7.58
2019-02-07T20:50:15.426Z,7.53
2019-02-07T20:55:11.614Z,7.46
2019-02-07T21:00:18.020Z,7.42
2019-02-07T21:05:15.813Z,7.54
2019-02-07T21:10:17.982Z,7.56
2019-02-07T21:15:18.803Z,7.58
2019-02-07T21:20:16.882Z,7.60
2019-02-07T21:25:18.176Z,7.52
2019-02-07T21:30:17.877Z,7.54
2019-02-07T21:35:16.855Z,7.47
2019-02-07T21:40:16.018Z,7.39
2019-02-07T21:45:14.300Z,7.40
2019-02-07T21:50:15.787Z,7.41
2019-02-07T21:55:14.376Z,7.30
2019-02-07T22:00:14.075Z,7.30
2019-02-07T22:05:10.061Z,7.27
2019-02-07T22:10:09.154Z,7.28
2019-02-07T22:15:08.852Z,7.25
2019-02-07T22:20:13.449Z,7.29
2019-02-07T22:25:10.033Z,7.28
2019-02-07T22:30:15.017Z,7.31
2019-02-07T22:35:11.706Z,7.32
2019-02-07T22:40:11.099Z,7.30
2019-02-07T22:45:10.168Z,7.36
2019-02-07T22:50:09.862Z,7.33
2019-02-07T22:55:07.548Z,7.31
2019-02-07T23:00:30.919Z,7.37
2019-02-07T23:05:26.803Z,7.32
2019-02-07T23:10:22.817Z,7.40
2019-02-07T23:15:18.836Z,7.38
2019-02-07T23:20:15.085Z,7.39
2019-02-07T23:25:11.214Z,7.39
2019-02-07T23:30:13.430Z,7.27
2019-02-07T23:35:10.115Z,7.21
2019-02-07T23:40:17.551Z,7.12
2019-02-07T23:45:15.638Z,7.07
2019-02-07T23:50:11.914Z,7.09
2019-02-07T23:55:09.706Z,7.05
